Time;durP1;ratioP1;P1;durP2;ratioP2;P2;SDS_P1;SDS_P2;PMS_P1;PMS_P2;Temp;Humidity;BMP_temperature;BMP_pressure;BME280_temperature;BME280_humidity;BME280_pressure;Samples;Min_cycle;Max_cycle;Signal;HPM_P1;HPM_P2
2020/12/04 09:03:04;;;;;;;13.45;9.65;;;486.60;1075.20;;;;;;5112053;27;20382;-68
2020/12/04 09:05:30;;;;;;;17.63;8.75;;;282.00;1305.60;;;;;;5088155;28;20024;-64
2020/12/04 09:07:56;;;;;;;17.10;8.45;;;256.60;1356.80;;;;;;5070082;28;20530;-65
2020/12/04 09:10:21;;;;;;;12.77;8.40;;;231.30;1433.60;;;;;;5085942;28;20085;-67
2020/12/04 09:12:48;;;;;;;12.75;8.65;;;230.90;1459.20;;;;;;5103723;28;20020;-62
2020/12/04 09:15:16;;;;;;;14.95;9.63;;;230.90;1484.80;;;;;;5088013;28;20024;-62
2020/12/04 09:17:41;;;;;;;11.15;7.63;;;205.70;1536.00;;;;;;5052048;28;20032;-62
2020/12/04 09:20:08;;;;;;;14.18;8.13;;;230.40;1536.00;;;;;;5069494;28;20070;-66
2020/12/04 09:22:33;;;;;;;16.08;8.02;;;230.40;1561.60;;;;;;5085968;28;20182;-63
2020/12/04 09:25:00;;;;;;;15.52;9.18;;;230.40;1561.60;;;;;;5085569;28;20538;-67
2020/12/04 09:27:26;;;;;;;15.27;10.18;;;205.70;1766.40;;;;;;5086202;28;20028;-63
2020/12/04 09:29:52;;;;;;;21.73;10.70;;;205.70;1561.60;;;;;;5068439;28;20036;-67
2020/12/04 09:32:18;;;;;;;14.23;8.75;;;230.40;1561.60;;;;;;5087214;28;20029;-71
2020/12/04 09:34:44;;;;;;;13.07;8.07;;;230.50;1561.60;;;;;;5052516;28;20036;-66
2020/12/04 09:37:16;;;;;;;14.60;8.10;;;230.60;1536.00;;;;;;5069270;28;20463;-63
2020/12/04 09:39:45;;;;;;;15.73;9.13;;;230.50;1536.00;;;;;;5087352;28;20021;-63
2020/12/04 09:42:12;;;;;;;14.23;8.27;;;230.70;1536.00;;;;;;5087471;28;20032;-62
2020/12/04 09:44:38;;;;;;;17.02;9.38;;;230.80;1536.00;;;;;;5103022;28;20036;-62
2020/12/04 09:47:04;;;;;;;13.77;8.90;;;230.80;1510.40;;;;;;5069567;28;20036;-63
2020/12/04 09:49:29;;;;;;;15.13;9.90;;;230.90;1510.40;;;;;;5087445;28;20483;-63
2020/12/04 09:51:57;;;;;;;18.38;9.90;;;231.00;1484.80;;;;;;5087113;28;20425;-63
2020/12/04 09:54:26;;;;;;;13.40;8.63;;;231.10;1484.80;;;;;;5087766;28;20012;-65
2020/12/04 09:56:53;;;;;;;18.27;9.02;;;231.00;1484.80;;;;;;5067949;28;20743;-70
2020/12/04 09:59:20;;;;;;;12.63;8.10;;;231.10;1484.80;;;;;;5069299;28;20528;-66
2020/12/04 10:01:48;;;;;;;14.68;9.77;;;256.10;1433.60;;;;;;5068111;28;20406;-71
2020/12/04 10:04:18;;;;;;;14.57;8.67;;;231.30;1459.20;;;;;;5087414;28;20036;-66
2020/12/04 10:06:44;;;;;;;13.50;8.27;;;231.20;1459.20;;;;;;5086597;28;20249;-67
2020/12/04 10:09:11;;;;;;;15.18;9.15;;;231.20;1459.20;;;;;;5086052;28;20028;-71
2020/12/04 10:11:37;;;;;;;16.08;9.45;;;231.20;1459.20;;;;;;5086951;28;20020;-61
2020/12/04 10:14:03;;;;;;;17.35;11.35;;;231.00;1484.80;;;;;;5073401;28;20099;-62
2020/12/04 10:16:29;;;;;;;16.45;9.98;;;231.10;1484.80;;;;;;5055231;28;20475;-69
2020/12/04 10:18:55;;;;;;;18.05;11.85;;;231.20;1484.80;;;;;;5034958;28;20045;-69
2020/12/04 10:21:20;;;;;;;15.23;10.20;;;231.10;1484.80;;;;;;5069384;28;20082;-67
2020/12/04 10:23:46;;;;;;;15.18;9.48;;;231.10;1484.80;;;;;;5054360;28;20025;-63
2020/12/04 10:26:12;;;;;;;14.45;9.43;;;231.30;1484.80;;;;;;5053688;28;20024;-75
2020/12/04 10:28:38;;;;;;;13.23;9.20;;;231.30;1484.80;;;;;;5072830;28;20028;-66
2020/12/04 10:31:03;;;;;;;16.27;8.55;;;231.20;1484.80;;;;;;5073079;28;20120;-63
2020/12/04 10:33:29;;;;;;;12.27;8.48;;;231.20;1484.80;;;;;;5054252;28;20028;-68
2020/12/04 10:35:55;;;;;;;11.88;8.15;;;231.20;1484.80;;;;;;5072342;28;20029;-73
2020/12/04 10:38:20;;;;;;;15.40;11.80;;;231.20;1484.80;;;;;;5072300;28;20181;-68
2020/12/04 10:40:46;;;;;;;18.77;10.50;;;256.00;1484.80;;;;;;5072849;28;20021;-63
2020/12/04 10:43:12;;;;;;;16.17;8.52;;;256.00;1484.80;;;;;;5073502;28;20111;-70
2020/12/04 10:45:37;;;;;;;18.38;10.93;;;231.30;1484.80;;;;;;5073229;28;20401;-63
2020/12/04 10:48:03;;;;;;;17.48;10.02;;;231.30;1484.80;;;;;;5072894;28;20124;-65
2020/12/04 10:50:29;;;;;;;16.45;9.80;;;231.20;1510.40;;;;;;5072854;28;20021;-63
2020/12/04 10:52:54;;;;;;;15.13;9.82;;;231.30;1484.80;;;;;;5073218;28;20024;-64
2020/12/04 10:55:23;;;;;;;14.95;9.55;;;231.20;1510.40;;;;;;5071552;28;20036;-63
2020/12/04 10:57:49;;;;;;;16.05;9.18;;;256.00;1484.80;;;;;;5072260;28;20027;-64
2020/12/04 11:00:15;;;;;;;18.33;10.27;;;231.30;1484.80;;;;;;5072528;28;20028;-69
2020/12/04 11:02:41;;;;;;;18.02;10.10;;;256.00;1484.80;;;;;;5050521;28;20049;-66
2020/12/04 11:08:11;;;;;;;16.88;9.60;;;256.10;1459.20;;;;;;5009596;28;20080;-60
2020/12/04 11:10:38;;;;;;;15.02;9.23;;;256.30;1459.20;;;;;;5009600;28;20025;-62
2020/12/04 11:13:03;;;;;;;15.65;10.23;;;256.30;1459.20;;;;;;4993498;28;20488;-62
2020/12/04 11:15:30;;;;;;;15.90;10.05;;;256.30;1459.20;;;;;;5010412;28;20033;-71
2020/12/04 11:17:56;;;;;;;19.92;12.90;;;256.50;1433.60;;;;;;5010682;28;20022;-74
2020/12/04 11:20:23;;;;;;;16.27;9.93;;;256.60;1433.60;;;;;;5009584;28;20072;-64
2020/12/04 11:22:50;;;;;;;21.35;17.13;;;256.50;1433.60;;;;;;5009890;28;20589;-62
2020/12/04 11:25:16;;;;;;;20.05;11.82;;;256.60;1433.60;;;;;;5009311;28;20049;-62
2020/12/04 11:27:45;;;;;;;20.08;11.10;;;256.60;1433.60;;;;;;5010724;28;20069;-66
2020/12/04 11:30:13;;;;;;;15.07;9.98;;;256.70;1433.60;;;;;;5010119;28;20028;-62
2020/12/04 11:32:39;;;;;;;18.73;10.90;;;256.70;1408.00;;;;;;5008059;28;20046;-63
2020/12/04 11:35:07;;;;;;;19.35;10.88;;;256.80;1408.00;;;;;;5008938;28;20341;-62
2020/12/04 11:37:34;;;;;;;16.10;10.50;;;281.60;1433.60;;;;;;5009838;28;20022;-63
2020/12/04 11:40:00;;;;;;;14.63;9.38;;;281.80;1408.00;;;;;;5048159;28;20033;-62
2020/12/04 11:42:27;;;;;;;15.48;9.82;;;281.80;1408.00;;;;;;5051775;28;20497;-62
2020/12/04 11:44:54;;;;;;;26.33;16.58;;;281.80;1408.00;;;;;;5040871;28;20021;-62
2020/12/04 11:47:20;;;;;;;17.27;10.80;;;281.80;1408.00;;;;;;5050571;28;20505;-63
2020/12/04 11:49:45;;;;;;;18.42;11.05;;;281.70;1408.00;;;;;;5047697;28;20029;-67
2020/12/04 11:52:11;;;;;;;17.00;10.50;;;281.90;1408.00;;;;;;5048887;28;20048;-65
2020/12/04 11:54:37;;;;;;;18.27;10.30;;;281.70;1408.00;;;;;;5049706;28;20070;-61
2020/12/04 11:57:02;;;;;;;14.35;9.43;;;282.00;1382.40;;;;;;5050314;28;20036;-61
2020/12/04 11:59:28;;;;;;;15.48;9.85;;;281.90;1382.40;;;;;;5050458;28;20100;-64
2020/12/04 12:01:56;;;;;;;16.63;10.20;;;282.10;1382.40;;;;;;5061374;28;20052;-66
2020/12/04 12:04:22;;;;;;;13.48;8.95;;;281.70;1408.00;;;;;;5053762;28;20056;-65
2020/12/04 12:06:47;;;;;;;17.63;10.80;;;281.90;1382.40;;;;;;5052432;28;20079;-68
2020/12/04 12:09:13;;;;;;;14.75;9.20;;;281.90;1382.40;;;;;;5070420;28;20016;-64
2020/12/04 12:11:39;;;;;;;17.27;9.75;;;282.00;1382.40;;;;;;5052076;28;20028;-65
2020/12/04 12:14:05;;;;;;;17.38;9.57;;;281.90;1382.40;;;;;;5069827;28;20534;-64
2020/12/04 12:16:30;;;;;;;13.23;8.80;;;282.10;1382.40;;;;;;5072819;28;20028;-63
2020/12/04 12:18:56;;;;;;;15.23;9.65;;;282.10;1356.80;;;;;;5072865;28;20394;-64
2020/12/04 12:21:22;;;;;;;14.75;8.82;;;281.80;1382.40;;;;;;5072076;28;20393;-63
2020/12/04 12:23:48;;;;;;;13.93;9.48;;;281.80;1382.40;;;;;;5072971;28;20413;-67
2020/12/04 12:26:14;;;;;;;15.77;8.85;;;281.60;1408.00;;;;;;5072403;28;20043;-64
2020/12/04 12:28:39;;;;;;;15.30;9.30;;;281.70;1408.00;;;;;;5066876;28;20073;-65
2020/12/04 12:31:06;;;;;;;14.95;9.05;;;281.60;1408.00;;;;;;5053861;28;20072;-62
2020/12/04 12:33:31;;;;;;;14.30;8.88;;;281.60;1408.00;;;;;;5071569;28;20032;-62
2020/12/04 12:35:58;;;;;;;15.45;9.63;;;281.80;1408.00;;;;;;5069638;28;20032;-63
2020/12/04 12:38:23;;;;;;;13.32;8.88;;;281.70;1408.00;;;;;;5067602;28;20078;-63
2020/12/04 12:40:49;;;;;;;13.15;8.40;;;281.70;1408.00;;;;;;5071969;28;20052;-63
2020/12/04 12:43:15;;;;;;;15.27;8.48;;;281.90;1382.40;;;;;;5072174;28;20024;-63
2020/12/04 12:45:41;;;;;;;16.48;10.15;;;282.00;1382.40;;;;;;5054448;28;20063;-64
2020/12/04 12:48:07;;;;;;;14.55;9.45;;;281.90;1382.40;;;;;;5072363;28;20482;-63
2020/12/04 12:50:34;;;;;;;14.13;9.27;;;282.00;1382.40;;;;;;5072428;28;20034;-63
2020/12/04 12:53:00;;;;;;;14.57;9.13;;;281.80;1408.00;;;;;;5069756;28;20043;-62
2020/12/04 12:55:25;;;;;;;17.95;12.40;;;256.80;1408.00;;;;;;5069475;28;20545;-63
2020/12/04 12:57:51;;;;;;;14.23;9.70;;;256.70;1433.60;;;;;;5071316;28;20028;-63
2020/12/04 13:00:17;;;;;;;16.75;10.20;;;256.80;1408.00;;;;;;5071986;28;20025;-63
2020/12/04 13:02:43;;;;;;;13.98;9.25;;;256.50;1433.60;;;;;;5071881;28;20068;-63
2020/12/04 13:07:53;;;;;;;14.23;9.75;;;256.80;1408.00;;;;;;5070757;28;20489;-63
2020/12/04 13:10:19;;;;;;;17.40;9.65;;;281.60;1433.60;;;;;;5071716;28;20029;-62
2020/12/04 13:12:47;;;;;;;14.95;9.27;;;281.70;1408.00;;;;;;5071763;28;20029;-62
2020/12/04 13:15:13;;;;;;;17.48;9.70;;;281.80;1408.00;;;;;;5071954;28;20052;-66
2020/12/04 13:17:39;;;;;;;14.73;9.15;;;282.00;1408.00;;;;;;5071401;28;20064;-63
2020/12/04 13:20:05;;;;;;;14.38;9.30;;;281.90;1408.00;;;;;;5069560;28;20021;-63
2020/12/04 13:22:30;;;;;;;14.45;9.05;;;281.90;1408.00;;;;;;5071332;28;20454;-63
2020/12/04 13:24:56;;;;;;;13.85;9.45;;;281.80;1408.00;;;;;;5071463;28;20021;-63
2020/12/04 13:27:22;;;;;;;16.85;8.88;;;281.80;1408.00;;;;;;5070652;28;20035;-62
2020/12/04 13:29:47;;;;;;;15.95;9.40;;;281.70;1433.60;;;;;;5071545;28;20029;-62
2020/12/04 13:32:13;;;;;;;19.42;10.25;;;281.60;1433.60;;;;;;5053412;28;20560;-63
2020/12/04 13:34:39;;;;;;;16.83;9.95;;;281.70;1433.60;;;;;;5071732;28;20527;-62
2020/12/04 13:37:05;;;;;;;16.85;9.98;;;281.60;1433.60;;;;;;5070901;28;20032;-62
2020/12/04 13:39:31;;;;;;;14.57;9.20;;;256.90;1433.60;;;;;;5071507;28;20021;-62
2020/12/04 13:41:58;;;;;;;18.35;10.05;;;281.60;1433.60;;;;;;5071423;28;20033;-62
2020/12/04 13:44:23;;;;;;;16.73;9.20;;;281.60;1459.20;;;;;;5071494;28;20020;-63
2020/12/04 13:46:50;;;;;;;15.23;9.65;;;281.80;1433.60;;;;;;5071380;28;20024;-62
2020/12/04 13:49:17;;;;;;;17.92;8.93;;;281.70;1433.60;;;;;;5073816;28;20024;-62
2020/12/04 13:51:43;;;;;;;13.50;8.55;;;282.00;1408.00;;;;;;5075087;28;20021;-62
2020/12/04 13:54:09;;;;;;;13.05;8.30;;;282.00;1408.00;;;;;;5075003;28;20426;-63
2020/12/04 13:56:39;;;;;;;16.40;10.35;;;282.10;1408.00;;;;;;5074123;28;20417;-62
2020/12/04 13:59:06;;;;;;;18.15;8.95;;;282.10;1408.00;;;;;;5075223;28;20090;-62
2020/12/04 14:01:36;;;;;;;17.85;9.77;;;282.00;1408.00;;;;;;5074040;28;20509;-62
2020/12/04 14:04:03;;;;;;;19.98;10.07;;;282.00;1408.00;;;;;;5075021;28;20024;-61
2020/12/04 14:06:29;;;;;;;15.68;10.38;;;281.90;1408.00;;;;;;5074387;28;20017;-63
2020/12/04 14:08:54;;;;;;;14.75;9.40;;;282.00;1408.00;;;;;;5075131;28;20041;-64
2020/12/04 14:11:20;;;;;;;16.30;9.98;;;282.00;1408.00;;;;;;5074753;28;20025;-62
2020/12/04 14:13:47;;;;;;;14.07;9.07;;;281.80;1433.60;;;;;;5074668;28;20475;-65
2020/12/04 14:16:14;;;;;;;17.10;10.15;;;281.70;1433.60;;;;;;5074561;28;20028;-64
2020/12/04 14:18:39;;;;;;;15.40;9.35;;;281.60;1459.20;;;;;;5074868;28;20517;-63
2020/12/04 14:21:07;;;;;;;16.10;10.43;;;256.80;1433.60;;;;;;5074796;28;20037;-63
2020/12/04 14:23:33;;;;;;;15.23;9.43;;;256.70;1459.20;;;;;;5075221;28;20118;-63
2020/12/04 14:25:59;;;;;;;20.13;10.32;;;256.40;1484.80;;;;;;5056631;28;20024;-64
2020/12/04 14:28:24;;;;;;;24.35;11.68;;;256.20;1510.40;;;;;;5056635;28;20055;-64
2020/12/04 14:30:50;;;;;;;14.93;9.82;;;256.10;1510.40;;;;;;5072010;28;20035;-63
2020/12/04 14:33:16;;;;;;;18.35;10.95;;;231.30;1536.00;;;;;;5074556;28;20374;-66
2020/12/04 14:35:41;;;;;;;18.98;11.25;;;231.10;1561.60;;;;;;5075082;28;20356;-64
2020/12/04 14:38:07;;;;;;;16.75;10.00;;;231.10;1587.20;;;;;;5074660;28;20530;-64
2020/12/04 14:40:33;;;;;;;19.40;11.23;;;231.00;1587.20;;;;;;5073209;28;20508;-64
2020/12/04 14:43:00;;;;;;;19.23;12.23;;;230.90;1587.20;;;;;;5073491;28;20059;-64
2020/12/04 14:45:26;;;;;;;16.52;10.52;;;230.60;1638.40;;;;;;5074473;28;20028;-63
2020/12/04 14:47:52;;;;;;;18.35;11.25;;;230.60;1638.40;;;;;;5074276;28;20016;-63
2020/12/04 14:50:18;;;;;;;21.50;11.45;;;230.60;1638.40;;;;;;5056592;28;20116;-64
2020/12/04 14:52:44;;;;;;;21.75;12.48;;;230.50;1664.00;;;;;;5073482;28;20107;-64
2020/12/04 14:55:10;;;;;;;22.98;12.50;;;230.50;1664.00;;;;;;5055663;28;20379;-63
2020/12/04 14:57:40;;;;;;;23.77;11.85;;;230.50;1664.00;;;;;;5073195;28;20021;-65
2020/12/04 15:00:11;;;;;;;23.63;12.50;;;205.70;1689.60;;;;;;5072823;28;20103;-63
2020/12/04 15:02:38;;;;;;;21.80;11.80;;;205.60;1715.20;;;;;;5073187;28;20052;-62
2020/12/04 15:05:05;;;;;;;22.40;12.93;;;205.60;1715.20;;;;;;5073483;28;20434;-61
2020/12/04 15:07:31;;;;;;;31.13;15.35;;;205.50;1715.20;;;;;;5073003;28;20043;-63
2020/12/04 15:09:57;;;;;;;25.85;13.82;;;205.50;1715.20;;;;;;5073057;28;20470;-64
2020/12/04 15:12:22;;;;;;;21.27;12.88;;;205.50;1715.20;;;;;;5072830;28;20028;-61
2020/12/04 15:14:48;;;;;;;19.80;11.75;;;205.50;1715.20;;;;;;5073621;28;20024;-61
2020/12/04 15:17:14;;;;;;;17.95;10.88;;;205.40;1740.80;;;;;;5073259;28;20104;-61
2020/12/04 15:19:39;;;;;;;17.88;11.18;;;205.30;1740.80;;;;;;5072768;28;20134;-61
2020/12/04 15:22:05;;;;;;;21.95;12.18;;;205.30;1740.80;;;;;;5073285;28;20089;-61
2020/12/04 15:24:31;;;;;;;20.15;11.35;;;205.30;1766.40;;;;;;5073034;28;20028;-62
2020/12/04 15:26:56;;;;;;;18.75;11.48;;;205.30;1766.40;;;;;;5072204;28;20028;-61
2020/12/04 15:29:22;;;;;;;21.50;12.05;;;205.20;1766.40;;;;;;5053657;28;20036;-61
2020/12/04 15:31:48;;;;;;;21.10;11.73;;;205.20;1766.40;;;;;;5072932;28;20071;-62
2020/12/04 15:34:13;;;;;;;19.08;11.70;;;205.10;1792.00;;;;;;5072669;28;20029;-63
2020/12/04 15:36:39;;;;;;;21.33;11.90;;;205.10;1792.00;;;;;;5071345;28;20482;-61
2020/12/04 15:39:05;;;;;;;19.20;11.05;;;205.20;1766.40;;;;;;5071268;28;20032;-62
2020/12/04 15:41:31;;;;;;;17.98;11.65;;;205.20;1766.40;;;;;;5070094;28;20044;-62
2020/12/04 15:43:57;;;;;;;21.38;12.23;;;205.20;1766.40;;;;;;5072958;28;20391;-62
2020/12/04 15:46:23;;;;;;;19.70;11.65;;;205.20;1766.40;;;;;;5073312;28;20028;-61
2020/12/04 15:48:49;;;;;;;20.73;11.40;;;205.10;1792.00;;;;;;5053321;28;20031;-62
2020/12/04 15:51:16;;;;;;;18.92;12.40;;;205.10;1792.00;;;;;;5073063;28;20094;-62
2020/12/04 15:53:42;;;;;;;19.90;12.63;;;205.10;1792.00;;;;;;5073165;28;20016;-62
2020/12/04 15:56:09;;;;;;;19.15;11.73;;;205.10;1792.00;;;;;;5072636;28;20421;-62
2020/12/04 15:58:35;;;;;;;21.75;12.68;;;205.10;1792.00;;;;;;5073343;28;20483;-62
2020/12/04 16:01:00;;;;;;;20.17;12.57;;;205.00;1817.60;;;;;;5054316;28;20062;-62
2020/12/04 16:03:26;;;;;;;19.52;12.60;;;205.00;1817.60;;;;;;5073327;28;20032;-63
2020/12/04 16:05:52;;;;;;;22.80;12.77;;;205.10;1817.60;;;;;;5072745;28;20048;-62
2020/12/04 16:08:18;;;;;;;23.77;13.25;;;205.10;1792.00;;;;;;5073076;28;20463;-65
2020/12/04 16:10:44;;;;;;;23.38;13.40;;;205.00;1817.60;;;;;;5072687;28;20066;-63
2020/12/04 16:13:10;;;;;;;23.35;14.07;;;205.10;1817.60;;;;;;5072943;28;20013;-64
2020/12/04 16:15:36;;;;;;;24.17;13.43;;;205.10;1792.00;;;;;;5072680;28;20383;-64
2020/12/04 16:18:03;;;;;;;27.90;14.45;;;205.10;1843.20;;;;;;5072387;28;20024;-63
2020/12/04 16:20:28;;;;;;;26.75;14.85;;;205.10;1817.60;;;;;;5072786;28;20089;-62
2020/12/04 16:22:54;;;;;;;22.48;14.40;;;205.10;1894.40;;;;;;5072396;28;20041;-63
2020/12/04 16:25:20;;;;;;;33.45;17.60;;;205.00;1868.80;;;;;;5072810;28;20024;-64
2020/12/04 16:27:46;;;;;;;26.42;15.40;;;205.00;1868.80;;;;;;5054018;28;20043;-64
2020/12/04 16:30:12;;;;;;;25.67;13.98;;;205.10;2048.00;;;;;;5070928;28;20021;-63
2020/12/04 16:32:37;;;;;;;26.98;14.82;;;205.10;1843.20;;;;;;5072085;28;20029;-64
2020/12/04 16:35:03;;;;;;;27.73;14.70;;;205.10;1868.80;;;;;;5072090;28;20044;-63
2020/12/04 16:37:29;;;;;;;25.90;15.05;;;205.10;1868.80;;;;;;5071613;28;20363;-63
2020/12/04 16:39:55;;;;;;;29.05;15.48;;;205.10;1868.80;;;;;;5052593;28;20069;-63
2020/12/04 16:42:23;;;;;;;24.55;14.65;;;205.10;1868.80;;;;;;5072263;28;20111;-63
2020/12/04 16:44:52;;;;;;;28.23;14.23;;;205.20;1868.80;;;;;;5072126;28;20048;-63
2020/12/04 16:47:18;;;;;;;26.23;16.17;;;205.20;1843.20;;;;;;5071946;28;20032;-63
2020/12/04 16:49:44;;;;;;;25.48;14.90;;;205.20;1843.20;;;;;;5071802;28;20021;-63
2020/12/04 16:52:10;;;;;;;22.90;13.40;;;205.10;1868.80;;;;;;5071867;28;20028;-63
2020/12/04 16:54:36;;;;;;;26.85;14.25;;;205.20;1868.80;;;;;;5071941;28;20516;-65
2020/12/04 16:57:01;;;;;;;24.30;14.10;;;205.10;1894.40;;;;;;5071905;28;20032;-63
2020/12/04 16:59:29;;;;;;;27.15;14.07;;;205.10;1843.20;;;;;;5071819;28;20351;-63
2020/12/04 17:01:55;;;;;;;24.98;14.25;;;205.20;1868.80;;;;;;5069827;28;20063;-66
2020/12/04 17:04:22;;;;;;;26.77;14.85;;;205.20;1868.80;;;;;;5071940;28;20021;-66
2020/12/04 17:06:48;;;;;;;25.08;14.00;;;205.20;1843.20;;;;;;5069676;28;20107;-64
2020/12/04 17:09:14;;;;;;;33.05;18.30;;;205.20;1868.80;;;;;;5054309;28;20167;-64
2020/12/04 17:11:40;;;;;;;26.60;15.93;;;205.10;1843.20;;;;;;5072096;28;20017;-62
2020/12/04 17:14:05;;;;;;;69.40;41.17;;;205.10;1843.20;;;;;;5072187;28;20021;-61
2020/12/04 17:16:33;;;;;;;30.45;17.80;;;205.10;1868.80;;;;;;5072252;28;20052;-61
2020/12/04 17:19:01;;;;;;;174.40;96.23;;;205.00;1843.20;;;;;;5069490;28;20028;-61
2020/12/04 17:21:26;;;;;;;235.90;147.90;;;205.10;1843.20;;;;;;5070759;28;20071;-61
2020/12/04 17:23:52;;;;;;;85.00;53.63;;;205.00;1843.20;;;;;;5053658;28;20122;-62
2020/12/04 17:26:18;;;;;;;73.90;52.17;;;205.00;1843.20;;;;;;5076044;28;20474;-60
2020/12/04 17:28:44;;;;;;;50.92;32.58;;;205.00;1868.80;;;;;;5076505;28;20454;-61
2020/12/04 17:31:10;;;;;;;36.53;25.98;;;205.00;1843.20;;;;;;5075729;28;20025;-61
2020/12/04 17:33:36;;;;;;;39.88;32.22;;;205.00;1843.20;;;;;;5076118;28;20494;-66
2020/12/04 17:36:03;;;;;;;28.63;19.00;;;205.00;1843.20;;;;;;5075947;28;20021;-63
2020/12/04 17:38:30;;;;;;;22.35;13.30;;;205.00;1868.80;;;;;;5075769;28;20020;-62
2020/12/04 17:40:55;;;;;;;25.13;15.35;;;205.00;1868.80;;;;;;5075856;28;20020;-62
2020/12/04 17:43:21;;;;;;;25.45;14.75;;;204.90;1868.80;;;;;;5075774;28;20029;-67
2020/12/04 17:45:47;;;;;;;24.65;15.13;;;205.00;1868.80;;;;;;5075807;28;20039;-63
2020/12/04 17:48:15;;;;;;;22.70;14.43;;;204.90;1894.40;;;;;;5075581;28;20391;-66
2020/12/04 17:50:42;;;;;;;24.15;16.13;;;204.90;1894.40;;;;;;5075571;28;20026;-68
2020/12/04 17:53:09;;;;;;;27.98;15.98;;;204.90;1894.40;;;;;;5075242;28;20021;-65
2020/12/04 17:55:35;;;;;;;24.33;15.48;;;204.90;1920.00;;;;;;5074998;28;20028;-66
2020/12/04 17:58:01;;;;;;;26.55;14.70;;;204.90;1894.40;;;;;;5075718;28;20031;-63
2020/12/04 18:00:27;;;;;;;23.58;13.82;;;204.90;1894.40;;;;;;5075867;28;20035;-63
2020/12/04 18:02:53;;;;;;;28.92;13.77;;;205.00;1920.00;;;;;;5075018;28;20048;-64
2020/12/04 18:05:18;;;;;;;25.13;15.38;;;204.90;1920.00;;;;;;5075319;28;20032;-64
2020/12/04 18:07:44;;;;;;;23.13;13.32;;;205.00;1920.00;;;;;;5057140;28;20028;-60
2020/12/04 18:10:10;;;;;;;23.30;13.73;;;205.00;1920.00;;;;;;5075364;28;20031;-65
2020/12/04 18:12:35;;;;;;;26.40;15.23;;;204.90;1920.00;;;;;;5074667;28;20600;-61
2020/12/04 18:15:03;;;;;;;27.35;15.57;;;205.00;1920.00;;;;;;5075236;28;20123;-61
2020/12/04 18:17:28;;;;;;;22.00;13.82;;;205.00;1920.00;;;;;;5075615;28;20553;-61
2020/12/04 18:19:54;;;;;;;23.92;14.63;;;205.00;1920.00;;;;;;5075241;28;20020;-61
2020/12/04 18:22:20;;;;;;;24.35;13.52;;;205.00;1920.00;;;;;;5074881;28;20123;-60
2020/12/04 18:24:45;;;;;;;25.00;14.95;;;205.00;1920.00;;;;;;5074676;28;20020;-61
2020/12/04 18:27:11;;;;;;;22.63;14.43;;;205.10;1920.00;;;;;;5074724;28;20489;-62
2020/12/04 18:29:37;;;;;;;28.35;15.88;;;205.00;1920.00;;;;;;5074430;28;20039;-62
2020/12/04 18:32:02;;;;;;;22.10;12.60;;;205.00;1945.60;;;;;;5074480;28;20043;-62
2020/12/04 18:34:28;;;;;;;26.30;14.77;;;205.00;1920.00;;;;;;5074306;28;20028;-62
2020/12/04 18:36:55;;;;;;;24.85;14.55;;;205.00;1920.00;;;;;;5074647;28;20485;-61
2020/12/04 18:39:21;;;;;;;25.63;14.32;;;205.10;1920.00;;;;;;5074551;28;20017;-65
2020/12/04 18:41:47;;;;;;;21.48;13.48;;;205.00;1945.60;;;;;;5074582;28;20367;-65
2020/12/04 18:44:13;;;;;;;26.73;13.93;;;205.00;1945.60;;;;;;5075104;28;20028;-65
2020/12/04 18:46:39;;;;;;;21.45;14.23;;;205.00;1945.60;;;;;;5074498;28;20035;-65
2020/12/04 18:49:06;;;;;;;22.52;13.65;;;205.00;1945.60;;;;;;5074518;28;20017;-66
2020/12/04 18:51:32;;;;;;;24.05;13.52;;;205.00;1945.60;;;;;;5073400;28;20025;-66
2020/12/04 18:53:58;;;;;;;21.45;12.55;;;205.00;1945.60;;;;;;5074479;28;20091;-63
2020/12/04 18:56:26;;;;;;;21.58;13.27;;;205.00;1945.60;;;;;;5074245;28;20025;-65
2020/12/04 18:58:52;;;;;;;23.83;14.13;;;205.10;1945.60;;;;;;5074039;28;20020;-66
2020/12/04 19:01:18;;;;;;;25.17;15.30;;;205.10;1945.60;;;;;;5073950;28;20053;-66
2020/12/04 19:03:44;;;;;;;21.77;13.63;;;205.10;1945.60;;;;;;5074486;28;20032;-65
2020/12/04 19:06:10;;;;;;;21.52;12.93;;;205.10;1945.60;;;;;;5073786;28;20048;-65
2020/12/04 19:08:37;;;;;;;21.67;13.63;;;205.10;1945.60;;;;;;5073301;28;20025;-61
2020/12/04 19:11:04;;;;;;;24.98;14.32;;;205.10;1945.60;;;;;;5073580;28;20411;-60
2020/12/04 19:13:30;;;;;;;22.17;14.35;;;205.10;1945.60;;;;;;5073385;28;20048;-61
2020/12/04 19:15:56;;;;;;;22.15;15.10;;;205.10;1945.60;;;;;;5073640;28;20078;-62
2020/12/04 19:18:22;;;;;;;29.02;20.10;;;205.10;1945.60;;;;;;5071436;28;20082;-62
2020/12/04 19:20:48;;;;;;;25.35;16.33;;;205.10;1945.60;;;;;;5072057;28;20392;-61
2020/12/04 19:23:15;;;;;;;22.80;14.18;;;205.10;1945.60;;;;;;5073386;28;20046;-62
2020/12/04 19:25:41;;;;;;;24.50;14.02;;;205.10;1945.60;;;;;;5072880;28;20024;-61
2020/12/04 19:28:07;;;;;;;22.48;13.07;;;205.10;1945.60;;;;;;5055845;28;20036;-61
2020/12/04 19:30:33;;;;;;;25.30;14.13;;;205.20;1920.00;;;;;;5074033;28;20032;-61
2020/12/04 19:32:59;;;;;;;26.80;14.50;;;205.10;1945.60;;;;;;5074287;28;20554;-62
2020/12/04 19:35:24;;;;;;;24.35;15.93;;;205.10;1945.60;;;;;;5073489;28;20111;-62
2020/12/04 19:37:50;;;;;;;23.25;14.93;;;205.10;1945.60;;;;;;5073880;28;20032;-60
2020/12/04 19:40:17;;;;;;;25.17;15.65;;;205.10;1945.60;;;;;;5073558;28;20123;-60
2020/12/04 19:42:43;;;;;;;30.88;18.40;;;205.10;1945.60;;;;;;5073607;28;20028;-60
2020/12/04 19:45:10;;;;;;;24.83;14.88;;;205.10;1971.20;;;;;;5071915;28;20029;-61
2020/12/04 19:47:47;;;;;;;31.08;19.75;;;205.00;1945.60;;;;;;5069435;28;20024;-62
2020/12/04 19:50:17;;;;;;;25.35;15.32;;;205.00;1971.20;;;;;;5073081;28;20453;-62
2020/12/04 19:52:44;;;;;;;27.10;16.40;;;205.10;1945.60;;;;;;5072465;28;20377;-61
2020/12/04 19:55:10;;;;;;;28.95;15.77;;;205.10;1945.60;;;;;;5071069;28;20021;-62
2020/12/04 19:57:36;;;;;;;26.80;16.40;;;205.10;1945.60;;;;;;5072785;28;20409;-61
2020/12/04 20:00:05;;;;;;;32.53;20.20;;;205.20;1945.60;;;;;;5072759;28;20028;-63
2020/12/04 20:02:36;;;;;;;24.73;14.35;;;205.20;1945.60;;;;;;5068119;28;20106;-61
2020/12/04 20:05:01;;;;;;;36.75;24.20;;;205.20;1945.60;;;;;;5072266;28;20029;-62
2020/12/04 20:07:27;;;;;;;25.92;16.30;;;205.20;1945.60;;;;;;5071950;28;20454;-62
2020/12/04 20:09:53;;;;;;;25.27;15.02;;;205.20;1945.60;;;;;;5071573;28;20458;-62
2020/12/04 20:12:19;;;;;;;31.30;19.50;;;205.20;1945.60;;;;;;5071372;28;20024;-62
2020/12/04 20:14:44;;;;;;;37.25;23.20;;;205.20;1945.60;;;;;;5053482;28;20115;-62
2020/12/04 20:17:13;;;;;;;30.75;17.73;;;205.20;1945.60;;;;;;5052083;28;20078;-62
2020/12/04 20:19:39;;;;;;;26.05;16.83;;;205.20;1945.60;;;;;;5070961;28;20075;-62
2020/12/04 20:22:05;;;;;;;28.88;19.52;;;205.20;1945.60;;;;;;5069829;28;20079;-61
2020/12/04 20:24:30;;;;;;;28.52;18.73;;;205.10;1945.60;;;;;;5070248;28;20023;-62
2020/12/04 20:27:01;;;;;;;31.35;20.27;;;205.20;1945.60;;;;;;5071015;28;20032;-61
2020/12/04 20:29:28;;;;;;;30.95;17.73;;;205.10;1971.20;;;;;;5056486;28;20375;-61
2020/12/04 20:31:54;;;;;;;43.80;27.90;;;205.20;1945.60;;;;;;5069262;28;20391;-62
2020/12/04 20:34:20;;;;;;;22.90;14.65;;;205.20;1971.20;;;;;;5070163;28;20027;-62
2020/12/04 20:36:46;;;;;;;23.70;14.88;;;205.20;1971.20;;;;;;5070622;28;20367;-62
2020/12/04 20:39:12;;;;;;;36.78;22.70;;;205.20;1945.60;;;;;;5070968;28;20020;-62
2020/12/04 20:41:39;;;;;;;27.98;14.95;;;205.20;1971.20;;;;;;5070223;28;20029;-62
2020/12/04 20:44:08;;;;;;;29.55;18.13;;;205.20;1945.60;;;;;;5070642;28;20478;-62
2020/12/04 20:46:37;;;;;;;25.95;17.60;;;205.20;1971.20;;;;;;5070546;28;20021;-62
2020/12/04 20:49:03;;;;;;;33.58;20.08;;;205.30;1945.60;;;;;;5071374;28;20029;-61
2020/12/04 20:51:28;;;;;;;27.20;16.77;;;205.20;1945.60;;;;;;5067169;28;20100;-62
2020/12/04 20:53:54;;;;;;;28.75;16.42;;;205.30;1945.60;;;;;;5050604;28;20039;-61
2020/12/04 20:56:20;;;;;;;27.42;18.50;;;205.30;1945.60;;;;;;5069600;28;20115;-62
2020/12/04 20:58:45;;;;;;;30.55;19.38;;;205.30;1945.60;;;;;;5071557;28;20024;-62
2020/12/04 21:01:11;;;;;;;28.52;17.60;;;205.30;1945.60;;;;;;5067606;28;20044;-73
2020/12/04 21:03:37;;;;;;;27.63;17.00;;;205.30;1945.60;;;;;;5069153;28;20032;-68